sensor_id;sensor_type;location;lat;lon;timestamp;P1;durP1;ratioP1;P2;durP2;ratioP2
20251;SDS011;10284;58.364;15.550;2023-08-31T00:01:29;3.45;;;2.00;;
20251;SDS011;10284;58.364;15.550;2023-08-31T00:03:54;2.85;;;1.60;;
20251;SDS011;10284;58.364;15.550;2023-08-31T00:06:20;2.58;;;2.08;;
20251;SDS011;10284;58.364;15.550;2023-08-31T00:08:47;6.25;;;1.98;;
20251;SDS011;10284;58.364;15.550;2023-08-31T00:11:12;3.35;;;1.77;;
20251;SDS011;10284;58.364;15.550;2023-08-31T00:13:39;5.00;;;2.15;;
20251;SDS011;10284;58.364;15.550;2023-08-31T00:16:04;3.97;;;1.83;;
20251;SDS011;10284;58.364;15.550;2023-08-31T00:18:30;5.68;;;2.05;;
20251;SDS011;10284;58.364;15.550;2023-08-31T00:20:55;3.15;;;2.05;;
20251;SDS011;10284;58.364;15.550;2023-08-31T00:23:21;6.20;;;2.10;;
20251;SDS011;10284;58.364;15.550;2023-08-31T00:25:46;6.47;;;2.20;;
20251;SDS011;10284;58.364;15.550;2023-08-31T00:28:13;2.30;;;2.10;;
20251;SDS011;10284;58.364;15.550;2023-08-31T00:30:40;2.63;;;1.80;;
20251;SDS011;10284;58.364;15.550;2023-08-31T00:33:06;4.97;;;2.42;;
20251;SDS011;10284;58.364;15.550;2023-08-31T00:35:33;5.07;;;2.25;;
20251;SDS011;10284;58.364;15.550;2023-08-31T00:37:58;2.90;;;2.10;;
20251;SDS011;10284;58.364;15.550;2023-08-31T00:40:24;4.85;;;2.10;;
20251;SDS011;10284;58.364;15.550;2023-08-31T00:42:50;3.85;;;2.10;;
20251;SDS011;10284;58.364;15.550;2023-08-31T00:45:17;5.97;;;2.20;;
20251;SDS011;10284;58.364;15.550;2023-08-31T00:47:42;2.20;;;2.00;;
20251;SDS011;10284;58.364;15.550;2023-08-31T00:50:08;2.47;;;2.00;;
20251;SDS011;10284;58.364;15.550;2023-08-31T00:52:34;7.45;;;2.20;;
20251;SDS011;10284;58.364;15.550;2023-08-31T00:54:59;5.72;;;2.00;;
20251;SDS011;10284;58.364;15.550;2023-08-31T00:57:26;3.80;;;2.15;;
20251;SDS011;10284;58.364;15.550;2023-08-31T00:59:52;5.18;;;2.10;;
20251;SDS011;10284;58.364;15.550;2023-08-31T01:03:19;2.83;;;2.35;;
20251;SDS011;10284;58.364;15.550;2023-08-31T01:05:23;2.17;;;1.98;;
20251;SDS011;10284;58.364;15.550;2023-08-31T01:08:06;3.58;;;2.22;;
20251;SDS011;10284;58.364;15.550;2023-08-31T01:13:43;10.07;;;2.30;;
20251;SDS011;10284;58.364;15.550;2023-08-31T01:16:10;5.35;;;2.50;;
20251;SDS011;10284;58.364;15.550;2023-08-31T01:18:36;7.35;;;2.67;;
20251;SDS011;10284;58.364;15.550;2023-08-31T01:23:52;2.50;;;1.88;;
20251;SDS011;10284;58.364;15.550;2023-08-31T01:26:18;3.65;;;2.38;;
20251;SDS011;10284;58.364;15.550;2023-08-31T01:28:44;5.25;;;2.30;;
20251;SDS011;10284;58.364;15.550;2023-08-31T01:31:10;6.75;;;2.40;;
20251;SDS011;10284;58.364;15.550;2023-08-31T01:33:36;7.90;;;2.50;;
20251;SDS011;10284;58.364;15.550;2023-08-31T01:36:01;3.80;;;2.20;;
20251;SDS011;10284;58.364;15.550;2023-08-31T01:38:30;4.97;;;2.85;;
20251;SDS011;10284;58.364;15.550;2023-08-31T01:41:00;6.40;;;2.80;;
20251;SDS011;10284;58.364;15.550;2023-08-31T01:43:30;7.72;;;2.58;;
20251;SDS011;10284;58.364;15.550;2023-08-31T01:45:56;3.50;;;2.55;;
20251;SDS011;10284;58.364;15.550;2023-08-31T01:48:23;5.35;;;2.55;;
20251;SDS011;10284;58.364;15.550;2023-08-31T01:50:49;8.07;;;2.30;;
20251;SDS011;10284;58.364;15.550;2023-08-31T01:53:14;5.38;;;2.30;;
20251;SDS011;10284;58.364;15.550;2023-08-31T01:55:39;5.95;;;2.30;;
20251;SDS011;10284;58.364;15.550;2023-08-31T01:58:05;8.18;;;3.15;;
20251;SDS011;10284;58.364;15.550;2023-08-31T02:00:30;5.07;;;2.30;;
20251;SDS011;10284;58.364;15.550;2023-08-31T02:02:59;4.32;;;2.15;;
20251;SDS011;10284;58.364;15.550;2023-08-31T02:05:25;5.07;;;2.30;;
20251;SDS011;10284;58.364;15.550;2023-08-31T02:07:50;5.40;;;2.13;;
20251;SDS011;10284;58.364;15.550;2023-08-31T02:10:16;5.72;;;2.53;;
20251;SDS011;10284;58.364;15.550;2023-08-31T02:12:41;7.30;;;2.47;;
20251;SDS011;10284;58.364;15.550;2023-08-31T02:15:07;8.77;;;2.33;;
20251;SDS011;10284;58.364;15.550;2023-08-31T02:17:35;4.70;;;1.77;;
20251;SDS011;10284;58.364;15.550;2023-08-31T02:20:01;8.02;;;2.10;;
20251;SDS011;10284;58.364;15.550;2023-08-31T02:22:33;6.40;;;2.63;;
20251;SDS011;10284;58.364;15.550;2023-08-31T02:24:59;5.97;;;2.40;;
20251;SDS011;10284;58.364;15.550;2023-08-31T02:27:26;8.38;;;2.28;;
20251;SDS011;10284;58.364;15.550;2023-08-31T02:29:51;6.53;;;2.22;;
20251;SDS011;10284;58.364;15.550;2023-08-31T02:32:17;5.22;;;2.10;;
20251;SDS011;10284;58.364;15.550;2023-08-31T02:34:42;3.75;;;2.20;;
20251;SDS011;10284;58.364;15.550;2023-08-31T02:37:07;6.53;;;2.38;;
20251;SDS011;10284;58.364;15.550;2023-08-31T02:39:33;7.15;;;2.40;;
20251;SDS011;10284;58.364;15.550;2023-08-31T02:41:58;3.70;;;2.00;;
20251;SDS011;10284;58.364;15.550;2023-08-31T02:44:24;4.55;;;2.50;;
20251;SDS011;10284;58.364;15.550;2023-08-31T02:46:49;2.60;;;2.00;;
20251;SDS011;10284;58.364;15.550;2023-08-31T02:49:15;5.57;;;1.90;;
20251;SDS011;10284;58.364;15.550;2023-08-31T02:51:40;5.07;;;2.17;;
20251;SDS011;10284;58.364;15.550;2023-08-31T02:54:06;7.50;;;2.30;;
20251;SDS011;10284;58.364;15.550;2023-08-31T02:56:32;4.53;;;2.33;;
20251;SDS011;10284;58.364;15.550;2023-08-31T02:58:57;2.28;;;1.98;;
20251;SDS011;10284;58.364;15.550;2023-08-31T03:01:22;3.33;;;2.08;;
20251;SDS011;10284;58.364;15.550;2023-08-31T03:03:49;4.43;;;2.17;;
20251;SDS011;10284;58.364;15.550;2023-08-31T03:06:14;4.03;;;2.13;;
20251;SDS011;10284;58.364;15.550;2023-08-31T03:08:40;6.57;;;2.28;;
20251;SDS011;10284;58.364;15.550;2023-08-31T03:11:05;6.43;;;2.08;;
20251;SDS011;10284;58.364;15.550;2023-08-31T03:13:31;3.22;;;2.08;;
20251;SDS011;10284;58.364;15.550;2023-08-31T03:15:57;5.63;;;2.60;;
20251;SDS011;10284;58.364;15.550;2023-08-31T03:18:23;5.57;;;2.50;;
20251;SDS011;10284;58.364;15.550;2023-08-31T03:20:48;3.95;;;1.90;;
20251;SDS011;10284;58.364;15.550;2023-08-31T03:23:14;6.13;;;2.25;;
20251;SDS011;10284;58.364;15.550;2023-08-31T03:25:39;3.15;;;2.15;;
20251;SDS011;10284;58.364;15.550;2023-08-31T03:28:05;3.45;;;2.38;;
20251;SDS011;10284;58.364;15.550;2023-08-31T03:30:30;4.53;;;2.28;;
20251;SDS011;10284;58.364;15.550;2023-08-31T03:32:56;10.18;;;2.90;;
20251;SDS011;10284;58.364;15.550;2023-08-31T03:35:22;5.53;;;2.47;;
20251;SDS011;10284;58.364;15.550;2023-08-31T03:37:55;5.38;;;2.40;;
20251;SDS011;10284;58.364;15.550;2023-08-31T03:40:21;5.72;;;2.53;;
20251;SDS011;10284;58.364;15.550;2023-08-31T03:42:47;5.78;;;2.65;;
20251;SDS011;10284;58.364;15.550;2023-08-31T03:45:13;8.27;;;2.70;;
20251;SDS011;10284;58.364;15.550;2023-08-31T03:47:38;4.38;;;1.90;;
20251;SDS011;10284;58.364;15.550;2023-08-31T03:50:04;3.83;;;1.90;;
20251;SDS011;10284;58.364;15.550;2023-08-31T03:52:30;2.08;;;1.88;;
20251;SDS011;10284;58.364;15.550;2023-08-31T03:54:56;1.63;;;1.52;;
20251;SDS011;10284;58.364;15.550;2023-08-31T03:57:21;4.47;;;2.00;;
20251;SDS011;10284;58.364;15.550;2023-08-31T03:59:47;5.85;;;2.00;;
20251;SDS011;10284;58.364;15.550;2023-08-31T04:02:12;4.43;;;2.25;;
20251;SDS011;10284;58.364;15.550;2023-08-31T04:04:37;4.50;;;2.17;;
20251;SDS011;10284;58.364;15.550;2023-08-31T04:07:03;4.63;;;2.45;;
20251;SDS011;10284;58.364;15.550;2023-08-31T04:09:28;6.20;;;2.20;;
20251;SDS011;10284;58.364;15.550;2023-08-31T04:11:55;3.90;;;2.10;;
20251;SDS011;10284;58.364;15.550;2023-08-31T04:14:20;4.63;;;1.90;;
20251;SDS011;10284;58.364;15.550;2023-08-31T04:16:46;6.43;;;2.10;;
20251;SDS011;10284;58.364;15.550;2023-08-31T04:19:14;2.25;;;1.88;;
20251;SDS011;10284;58.364;15.550;2023-08-31T04:21:40;7.20;;;2.30;;
20251;SDS011;10284;58.364;15.550;2023-08-31T04:24:05;5.18;;;1.85;;
20251;SDS011;10284;58.364;15.550;2023-08-31T04:26:31;2.15;;;1.77;;
20251;SDS011;10284;58.364;15.550;2023-08-31T04:28:56;3.47;;;1.90;;
20251;SDS011;10284;58.364;15.550;2023-08-31T04:31:22;3.30;;;2.40;;
20251;SDS011;10284;58.364;15.550;2023-08-31T04:33:47;3.35;;;2.03;;
20251;SDS011;10284;58.364;15.550;2023-08-31T04:36:13;4.50;;;2.17;;
20251;SDS011;10284;58.364;15.550;2023-08-31T04:38:38;6.35;;;2.05;;
20251;SDS011;10284;58.364;15.550;2023-08-31T04:41:04;2.58;;;1.90;;
20251;SDS011;10284;58.364;15.550;2023-08-31T04:43:29;3.03;;;2.40;;
20251;SDS011;10284;58.364;15.550;2023-08-31T04:45:55;5.78;;;2.20;;
20251;SDS011;10284;58.364;15.550;2023-08-31T04:48:21;4.90;;;2.17;;
20251;SDS011;10284;58.364;15.550;2023-08-31T04:50:46;4.78;;;2.28;;
20251;SDS011;10284;58.364;15.550;2023-08-31T04:53:12;6.45;;;2.40;;
20251;SDS011;10284;58.364;15.550;2023-08-31T04:55:37;4.38;;;2.28;;
20251;SDS011;10284;58.364;15.550;2023-08-31T04:58:03;5.80;;;2.40;;
20251;SDS011;10284;58.364;15.550;2023-08-31T05:00:29;4.55;;;2.10;;
20251;SDS011;10284;58.364;15.550;2023-08-31T05:02:55;7.00;;;2.83;;
20251;SDS011;10284;58.364;15.550;2023-08-31T05:05:20;5.65;;;2.25;;
20251;SDS011;10284;58.364;15.550;2023-08-31T05:07:46;4.22;;;2.55;;
20251;SDS011;10284;58.364;15.550;2023-08-31T05:10:11;4.40;;;2.33;;
20251;SDS011;10284;58.364;15.550;2023-08-31T05:12:36;2.38;;;2.10;;
20251;SDS011;10284;58.364;15.550;2023-08-31T05:15:02;6.03;;;2.25;;
20251;SDS011;10284;58.364;15.550;2023-08-31T05:17:28;3.13;;;2.35;;
20251;SDS011;10284;58.364;15.550;2023-08-31T05:19:55;8.05;;;2.60;;
20251;SDS011;10284;58.364;15.550;2023-08-31T05:22:20;3.67;;;2.65;;
20251;SDS011;10284;58.364;15.550;2023-08-31T05:24:45;4.82;;;2.42;;
20251;SDS011;10284;58.364;15.550;2023-08-31T05:27:11;6.93;;;2.60;;
20251;SDS011;10284;58.364;15.550;2023-08-31T05:29:36;5.55;;;3.00;;
20251;SDS011;10284;58.364;15.550;2023-08-31T05:32:02;5.63;;;2.50;;
20251;SDS011;10284;58.364;15.550;2023-08-31T05:34:27;5.13;;;2.30;;
20251;SDS011;10284;58.364;15.550;2023-08-31T05:36:53;5.85;;;2.78;;
20251;SDS011;10284;58.364;15.550;2023-08-31T05:39:18;5.45;;;2.60;;
20251;SDS011;10284;58.364;15.550;2023-08-31T05:41:44;4.00;;;2.45;;
20251;SDS011;10284;58.364;15.550;2023-08-31T05:44:09;4.78;;;2.50;;
20251;SDS011;10284;58.364;15.550;2023-08-31T05:46:35;5.45;;;3.13;;
20251;SDS011;10284;58.364;15.550;2023-08-31T05:49:01;6.03;;;2.30;;
20251;SDS011;10284;58.364;15.550;2023-08-31T05:51:27;2.88;;;2.58;;
20251;SDS011;10284;58.364;15.550;2023-08-31T05:53:52;5.30;;;2.40;;
20251;SDS011;10284;58.364;15.550;2023-08-31T05:56:19;2.92;;;2.33;;
20251;SDS011;10284;58.364;15.550;2023-08-31T05:58:44;4.32;;;2.30;;
20251;SDS011;10284;58.364;15.550;2023-08-31T06:01:10;4.63;;;2.67;;
20251;SDS011;10284;58.364;15.550;2023-08-31T06:03:35;5.93;;;2.97;;
20251;SDS011;10284;58.364;15.550;2023-08-31T06:06:01;5.63;;;2.75;;
20251;SDS011;10284;58.364;15.550;2023-08-31T06:08:27;6.25;;;2.80;;
20251;SDS011;10284;58.364;15.550;2023-08-31T06:10:53;8.63;;;3.25;;
20251;SDS011;10284;58.364;15.550;2023-08-31T06:13:18;5.70;;;2.88;;
20251;SDS011;10284;58.364;15.550;2023-08-31T06:15:43;4.03;;;2.40;;
20251;SDS011;10284;58.364;15.550;2023-08-31T06:18:12;5.32;;;3.08;;
20251;SDS011;10284;58.364;15.550;2023-08-31T06:20:37;5.13;;;2.85;;
20251;SDS011;10284;58.364;15.550;2023-08-31T06:23:03;3.75;;;2.58;;
20251;SDS011;10284;58.364;15.550;2023-08-31T06:25:28;6.50;;;2.80;;
20251;SDS011;10284;58.364;15.550;2023-08-31T06:27:54;6.05;;;2.55;;
20251;SDS011;10284;58.364;15.550;2023-08-31T06:30:19;3.60;;;2.40;;
20251;SDS011;10284;58.364;15.550;2023-08-31T06:32:45;5.18;;;3.00;;
20251;SDS011;10284;58.364;15.550;2023-08-31T06:35:11;4.43;;;2.45;;
20251;SDS011;10284;58.364;15.550;2023-08-31T06:37:38;4.82;;;2.92;;
20251;SDS011;10284;58.364;15.550;2023-08-31T06:40:05;4.75;;;2.63;;
20251;SDS011;10284;58.364;15.550;2023-08-31T06:42:31;4.90;;;2.65;;
20251;SDS011;10284;58.364;15.550;2023-08-31T06:44:57;4.40;;;2.70;;
20251;SDS011;10284;58.364;15.550;2023-08-31T06:47:22;5.63;;;2.72;;
20251;SDS011;10284;58.364;15.550;2023-08-31T06:49:49;3.03;;;2.60;;
20251;SDS011;10284;58.364;15.550;2023-08-31T06:52:14;3.17;;;2.25;;
20251;SDS011;10284;58.364;15.550;2023-08-31T06:54:41;4.82;;;3.13;;
20251;SDS011;10284;58.364;15.550;2023-08-31T06:57:06;4.72;;;2.20;;
20251;SDS011;10284;58.364;15.550;2023-08-31T06:59:32;4.95;;;2.35;;
20251;SDS011;10284;58.364;15.550;2023-08-31T07:01:57;4.63;;;2.80;;
20251;SDS011;10284;58.364;15.550;2023-08-31T07:04:22;5.18;;;2.92;;
20251;SDS011;10284;58.364;15.550;2023-08-31T07:06:48;3.80;;;2.65;;
20251;SDS011;10284;58.364;15.550;2023-08-31T07:09:13;4.88;;;2.78;;
20251;SDS011;10284;58.364;15.550;2023-08-31T07:11:39;3.10;;;2.40;;
20251;SDS011;10284;58.364;15.550;2023-08-31T07:14:04;3.50;;;2.10;;
20251;SDS011;10284;58.364;15.550;2023-08-31T07:16:29;5.32;;;2.33;;
20251;SDS011;10284;58.364;15.550;2023-08-31T07:18:55;3.75;;;2.50;;
20251;SDS011;10284;58.364;15.550;2023-08-31T07:21:20;4.75;;;2.63;;
20251;SDS011;10284;58.364;15.550;2023-08-31T07:23:47;6.40;;;2.38;;
20251;SDS011;10284;58.364;15.550;2023-08-31T07:26:13;4.13;;;2.60;;
20251;SDS011;10284;58.364;15.550;2023-08-31T07:28:40;6.07;;;2.58;;
20251;SDS011;10284;58.364;15.550;2023-08-31T07:31:06;6.07;;;2.00;;
20251;SDS011;10284;58.364;15.550;2023-08-31T07:33:32;6.40;;;2.55;;
20251;SDS011;10284;58.364;15.550;2023-08-31T07:35:59;2.88;;;2.08;;
20251;SDS011;10284;58.364;15.550;2023-08-31T07:38:26;6.07;;;2.53;;
20251;SDS011;10284;58.364;15.550;2023-08-31T07:40:52;4.32;;;2.88;;
20251;SDS011;10284;58.364;15.550;2023-08-31T07:43:17;2.75;;;2.28;;
20251;SDS011;10284;58.364;15.550;2023-08-31T07:45:43;2.75;;;2.05;;
20251;SDS011;10284;58.364;15.550;2023-08-31T07:48:08;4.22;;;2.20;;
20251;SDS011;10284;58.364;15.550;2023-08-31T07:50:34;5.63;;;2.60;;
20251;SDS011;10284;58.364;15.550;2023-08-31T07:52:59;2.85;;;1.90;;
20251;SDS011;10284;58.364;15.550;2023-08-31T07:55:25;3.38;;;1.73;;
20251;SDS011;10284;58.364;15.550;2023-08-31T07:57:50;2.80;;;2.00;;
20251;SDS011;10284;58.364;15.550;2023-08-31T08:00:16;3.15;;;1.88;;
20251;SDS011;10284;58.364;15.550;2023-08-31T08:02:41;2.80;;;1.77;;
20251;SDS011;10284;58.364;15.550;2023-08-31T08:05:07;4.25;;;1.85;;
20251;SDS011;10284;58.364;15.550;2023-08-31T08:07:33;6.78;;;1.70;;
20251;SDS011;10284;58.364;15.550;2023-08-31T08:09:58;2.67;;;1.80;;
20251;SDS011;10284;58.364;15.550;2023-08-31T08:12:24;1.77;;;1.50;;
20251;SDS011;10284;58.364;15.550;2023-08-31T08:14:50;1.92;;;1.60;;
20251;SDS011;10284;58.364;15.550;2023-08-31T08:17:15;2.05;;;1.70;;
20251;SDS011;10284;58.364;15.550;2023-08-31T08:19:41;1.95;;;1.52;;
20251;SDS011;10284;58.364;15.550;2023-08-31T08:22:06;6.10;;;1.58;;
20251;SDS011;10284;58.364;15.550;2023-08-31T08:24:32;5.38;;;1.60;;
20251;SDS011;10284;58.364;15.550;2023-08-31T08:26:57;2.75;;;1.27;;
20251;SDS011;10284;58.364;15.550;2023-08-31T08:29:22;1.58;;;1.40;;
20251;SDS011;10284;58.364;15.550;2023-08-31T08:31:48;3.17;;;1.50;;
20251;SDS011;10284;58.364;15.550;2023-08-31T08:34:13;2.08;;;1.30;;
20251;SDS011;10284;58.364;15.550;2023-08-31T08:36:38;1.50;;;1.40;;
20251;SDS011;10284;58.364;15.550;2023-08-31T08:39:04;3.28;;;1.20;;
20251;SDS011;10284;58.364;15.550;2023-08-31T08:41:29;5.05;;;1.40;;
20251;SDS011;10284;58.364;15.550;2023-08-31T08:43:59;1.33;;;1.20;;
20251;SDS011;10284;58.364;15.550;2023-08-31T08:46:28;2.15;;;1.30;;
20251;SDS011;10284;58.364;15.550;2023-08-31T08:48:55;5.03;;;1.77;;
20251;SDS011;10284;58.364;15.550;2023-08-31T08:51:23;1.75;;;1.08;;
20251;SDS011;10284;58.364;15.550;2023-08-31T08:53:48;3.15;;;1.00;;
20251;SDS011;10284;58.364;15.550;2023-08-31T08:56:16;1.85;;;1.33;;
20251;SDS011;10284;58.364;15.550;2023-08-31T08:58:41;4.05;;;1.58;;
20251;SDS011;10284;58.364;15.550;2023-08-31T09:01:07;2.72;;;1.50;;
20251;SDS011;10284;58.364;15.550;2023-08-31T09:03:34;2.08;;;1.23;;
20251;SDS011;10284;58.364;15.550;2023-08-31T09:05:59;3.13;;;1.30;;
20251;SDS011;10284;58.364;15.550;2023-08-31T09:08:28;1.85;;;1.45;;
20251;SDS011;10284;58.364;15.550;2023-08-31T09:10:57;2.50;;;1.20;;
20251;SDS011;10284;58.364;15.550;2023-08-31T09:13:26;2.45;;;1.50;;
20251;SDS011;10284;58.364;15.550;2023-08-31T09:15:54;2.97;;;1.30;;
20251;SDS011;10284;58.364;15.550;2023-08-31T09:18:24;3.70;;;1.13;;
20251;SDS011;10284;58.364;15.550;2023-08-31T09:20:54;2.63;;;1.33;;
20251;SDS011;10284;58.364;15.550;2023-08-31T09:23:21;1.10;;;1.00;;
20251;SDS011;10284;58.364;15.550;2023-08-31T09:25:48;1.75;;;1.05;;
20251;SDS011;10284;58.364;15.550;2023-08-31T09:28:20;3.10;;;1.10;;
20251;SDS011;10284;58.364;15.550;2023-08-31T09:30:48;2.65;;;1.00;;
20251;SDS011;10284;58.364;15.550;2023-08-31T09:33:15;2.70;;;1.00;;
20251;SDS011;10284;58.364;15.550;2023-08-31T09:35:46;4.72;;;1.40;;
20251;SDS011;10284;58.364;15.550;2023-08-31T09:38:22;1.63;;;1.08;;
20251;SDS011;10284;58.364;15.550;2023-08-31T09:40:47;3.42;;;1.17;;
20251;SDS011;10284;58.364;15.550;2023-08-31T09:43:18;2.58;;;1.10;;
20251;SDS011;10284;58.364;15.550;2023-08-31T09:45:46;1.77;;;1.00;;
20251;SDS011;10284;58.364;15.550;2023-08-31T09:48:11;4.05;;;1.20;;
20251;SDS011;10284;58.364;15.550;2023-08-31T09:50:39;3.03;;;1.15;;
20251;SDS011;10284;58.364;15.550;2023-08-31T09:53:04;2.10;;;1.15;;
20251;SDS011;10284;58.364;15.550;2023-08-31T09:55:31;3.60;;;1.42;;
20251;SDS011;10284;58.364;15.550;2023-08-31T09:57:58;0.95;;;0.93;;
20251;SDS011;10284;58.364;15.550;2023-08-31T10:00:29;1.77;;;1.20;;
20251;SDS011;10284;58.364;15.550;2023-08-31T10:02:56;4.63;;;1.10;;
20251;SDS011;10284;58.364;15.550;2023-08-31T10:05:22;3.63;;;1.35;;
20251;SDS011;10284;58.364;15.550;2023-08-31T10:07:48;1.40;;;1.20;;
20251;SDS011;10284;58.364;15.550;2023-08-31T10:10:14;1.88;;;1.20;;
20251;SDS011;10284;58.364;15.550;2023-08-31T10:12:40;2.88;;;1.40;;
20251;SDS011;10284;58.364;15.550;2023-08-31T10:15:06;2.00;;;1.02;;
20251;SDS011;10284;58.364;15.550;2023-08-31T10:17:32;1.17;;;1.08;;
20251;SDS011;10284;58.364;15.550;2023-08-31T10:19:57;3.85;;;1.30;;
20251;SDS011;10284;58.364;15.550;2023-08-31T10:22:23;1.67;;;1.00;;
20251;SDS011;10284;58.364;15.550;2023-08-31T10:24:58;3.20;;;1.23;;
20251;SDS011;10284;58.364;15.550;2023-08-31T10:27:24;2.45;;;1.10;;
20251;SDS011;10284;58.364;15.550;2023-08-31T10:29:49;1.00;;;0.90;;
20251;SDS011;10284;58.364;15.550;2023-08-31T10:32:18;3.05;;;1.13;;
20251;SDS011;10284;58.364;15.550;2023-08-31T10:34:43;2.92;;;1.02;;
20251;SDS011;10284;58.364;15.550;2023-08-31T10:37:20;1.67;;;1.17;;
20251;SDS011;10284;58.364;15.550;2023-08-31T10:39:49;1.50;;;0.88;;
20251;SDS011;10284;58.364;15.550;2023-08-31T10:42:31;2.20;;;1.20;;
20251;SDS011;10284;58.364;15.550;2023-08-31T10:45:05;2.97;;;1.08;;
20251;SDS011;10284;58.364;15.550;2023-08-31T10:47:37;1.88;;;1.52;;
20251;SDS011;10284;58.364;15.550;2023-08-31T10:50:19;2.38;;;1.20;;
20251;SDS011;10284;58.364;15.550;2023-08-31T10:52:46;2.67;;;1.20;;
20251;SDS011;10284;58.364;15.550;2023-08-31T10:55:12;1.35;;;1.20;;
20251;SDS011;10284;58.364;15.550;2023-08-31T10:57:37;2.35;;;1.00;;
20251;SDS011;10284;58.364;15.550;2023-08-31T11:00:04;1.38;;;1.10;;
20251;SDS011;10284;58.364;15.550;2023-08-31T11:07:38;1.60;;;1.15;;
20251;SDS011;10284;58.364;15.550;2023-08-31T11:10:12;2.28;;;1.30;;
20251;SDS011;10284;58.364;15.550;2023-08-31T11:12:40;3.63;;;1.10;;
20251;SDS011;10284;58.364;15.550;2023-08-31T11:15:06;1.95;;;1.05;;
20251;SDS011;10284;58.364;15.550;2023-08-31T11:17:32;0.95;;;0.88;;
20251;SDS011;10284;58.364;15.550;2023-08-31T11:19:58;1.20;;;1.10;;
20251;SDS011;10284;58.364;15.550;2023-08-31T11:22:24;4.18;;;1.00;;
20251;SDS011;10284;58.364;15.550;2023-08-31T11:24:50;2.08;;;0.90;;
20251;SDS011;10284;58.364;15.550;2023-08-31T11:27:18;1.13;;;0.98;;
20251;SDS011;10284;58.364;15.550;2023-08-31T11:29:45;2.08;;;1.00;;
20251;SDS011;10284;58.364;15.550;2023-08-31T11:32:11;1.70;;;1.00;;
20251;SDS011;10284;58.364;15.550;2023-08-31T11:34:39;1.40;;;0.82;;
20251;SDS011;10284;58.364;15.550;2023-08-31T11:37:06;3.03;;;0.93;;
20251;SDS011;10284;58.364;15.550;2023-08-31T11:39:32;1.00;;;0.90;;
20251;SDS011;10284;58.364;15.550;2023-08-31T11:41:57;2.67;;;0.63;;
20251;SDS011;10284;58.364;15.550;2023-08-31T11:44:23;2.25;;;1.30;;
20251;SDS011;10284;58.364;15.550;2023-08-31T11:46:49;1.05;;;0.98;;
20251;SDS011;10284;58.364;15.550;2023-08-31T11:49:15;1.10;;;0.90;;
20251;SDS011;10284;58.364;15.550;2023-08-31T11:51:41;1.17;;;1.00;;
20251;SDS011;10284;58.364;15.550;2023-08-31T11:54:08;1.27;;;1.08;;
20251;SDS011;10284;58.364;15.550;2023-08-31T11:56:45;1.30;;;0.93;;
20251;SDS011;10284;58.364;15.550;2023-08-31T11:59:23;1.77;;;0.90;;
20251;SDS011;10284;58.364;15.550;2023-08-31T12:01:49;2.55;;;0.98;;
20251;SDS011;10284;58.364;15.550;2023-08-31T12:09:16;2.25;;;0.75;;
20251;SDS011;10284;58.364;15.550;2023-08-31T12:11:42;1.02;;;0.73;;
20251;SDS011;10284;58.364;15.550;2023-08-31T12:14:21;1.60;;;0.60;;
20251;SDS011;10284;58.364;15.550;2023-08-31T12:16:48;1.85;;;0.68;;
20251;SDS011;10284;58.364;15.550;2023-08-31T12:19:14;0.90;;;0.68;;
20251;SDS011;10284;58.364;15.550;2023-08-31T12:21:41;1.23;;;0.60;;
20251;SDS011;10284;58.364;15.550;2023-08-31T12:24:08;1.70;;;0.80;;
20251;SDS011;10284;58.364;15.550;2023-08-31T12:26:34;1.33;;;0.90;;
20251;SDS011;10284;58.364;15.550;2023-08-31T12:29:00;1.88;;;0.60;;
20251;SDS011;10284;58.364;15.550;2023-08-31T12:31:25;1.92;;;1.00;;
20251;SDS011;10284;58.364;15.550;2023-08-31T12:33:51;1.15;;;0.57;;
20251;SDS011;10284;58.364;15.550;2023-08-31T12:36:16;1.05;;;0.82;;
20251;SDS011;10284;58.364;15.550;2023-08-31T12:38:42;2.80;;;0.73;;
20251;SDS011;10284;58.364;15.550;2023-08-31T12:41:07;0.82;;;0.68;;
20251;SDS011;10284;58.364;15.550;2023-08-31T12:43:34;0.85;;;0.80;;
20251;SDS011;10284;58.364;15.550;2023-08-31T12:45:59;1.48;;;0.60;;
20251;SDS011;10284;58.364;15.550;2023-08-31T12:48:25;0.90;;;0.65;;
20251;SDS011;10284;58.364;15.550;2023-08-31T12:50:51;1.40;;;0.85;;
20251;SDS011;10284;58.364;15.550;2023-08-31T12:53:18;0.73;;;0.55;;
20251;SDS011;10284;58.364;15.550;2023-08-31T12:55:45;0.95;;;0.68;;
20251;SDS011;10284;58.364;15.550;2023-08-31T12:58:11;1.05;;;0.80;;
20251;SDS011;10284;58.364;15.550;2023-08-31T13:00:36;1.15;;;0.70;;
20251;SDS011;10284;58.364;15.550;2023-08-31T13:03:02;0.60;;;0.60;;
20251;SDS011;10284;58.364;15.550;2023-08-31T13:05:28;1.60;;;0.70;;
20251;SDS011;10284;58.364;15.550;2023-08-31T13:07:54;2.00;;;0.70;;
20251;SDS011;10284;58.364;15.550;2023-08-31T13:10:19;1.85;;;0.60;;
20251;SDS011;10284;58.364;15.550;2023-08-31T13:12:45;1.27;;;0.70;;
20251;SDS011;10284;58.364;15.550;2023-08-31T13:15:10;0.80;;;0.80;;
20251;SDS011;10284;58.364;15.550;2023-08-31T13:17:36;1.30;;;0.75;;
20251;SDS011;10284;58.364;15.550;2023-08-31T13:20:01;1.95;;;0.80;;
20251;SDS011;10284;58.364;15.550;2023-08-31T13:22:28;0.80;;;0.80;;
20251;SDS011;10284;58.364;15.550;2023-08-31T13:24:53;1.25;;;0.88;;
20251;SDS011;10284;58.364;15.550;2023-08-31T13:27:19;2.33;;;1.05;;
20251;SDS011;10284;58.364;15.550;2023-08-31T13:29:44;3.55;;;0.95;;
20251;SDS011;10284;58.364;15.550;2023-08-31T13:32:10;1.00;;;0.90;;
20251;SDS011;10284;58.364;15.550;2023-08-31T13:34:35;2.50;;;0.82;;
20251;SDS011;10284;58.364;15.550;2023-08-31T13:37:04;0.65;;;0.63;;
20251;SDS011;10284;58.364;15.550;2023-08-31T13:39:30;0.60;;;0.60;;
20251;SDS011;10284;58.364;15.550;2023-08-31T13:41:56;0.85;;;0.70;;
20251;SDS011;10284;58.364;15.550;2023-08-31T13:44:21;3.00;;;0.70;;
20251;SDS011;10284;58.364;15.550;2023-08-31T13:46:47;0.93;;;0.80;;
20251;SDS011;10284;58.364;15.550;2023-08-31T13:49:13;3.97;;;0.82;;
20251;SDS011;10284;58.364;15.550;2023-08-31T13:51:38;1.00;;;0.80;;
20251;SDS011;10284;58.364;15.550;2023-08-31T13:54:04;1.45;;;1.10;;
20251;SDS011;10284;58.364;15.550;2023-08-31T13:56:30;1.85;;;0.80;;
20251;SDS011;10284;58.364;15.550;2023-08-31T13:58:56;0.98;;;0.90;;
20251;SDS011;10284;58.364;15.550;2023-08-31T14:01:21;1.48;;;0.90;;
20251;SDS011;10284;58.364;15.550;2023-08-31T14:03:47;2.58;;;0.70;;
20251;SDS011;10284;58.364;15.550;2023-08-31T14:06:12;1.77;;;1.00;;
20251;SDS011;10284;58.364;15.550;2023-08-31T14:08:39;1.95;;;0.80;;
20251;SDS011;10284;58.364;15.550;2023-08-31T14:11:05;1.02;;;0.93;;
20251;SDS011;10284;58.364;15.550;2023-08-31T14:13:30;1.23;;;0.80;;
20251;SDS011;10284;58.364;15.550;2023-08-31T14:15:56;2.15;;;0.77;;
20251;SDS011;10284;58.364;15.550;2023-08-31T14:18:22;1.02;;;0.80;;
20251;SDS011;10284;58.364;15.550;2023-08-31T14:20:50;0.80;;;0.77;;
20251;SDS011;10284;58.364;15.550;2023-08-31T14:23:15;0.95;;;0.85;;
20251;SDS011;10284;58.364;15.550;2023-08-31T14:25:41;1.38;;;1.08;;
20251;SDS011;10284;58.364;15.550;2023-08-31T14:28:06;0.90;;;0.80;;
20251;SDS011;10284;58.364;15.550;2023-08-31T14:30:32;1.13;;;0.93;;
20251;SDS011;10284;58.364;15.550;2023-08-31T14:32:57;1.88;;;1.00;;
20251;SDS011;10284;58.364;15.550;2023-08-31T14:35:23;1.50;;;0.98;;
20251;SDS011;10284;58.364;15.550;2023-08-31T14:37:48;1.80;;;1.08;;
20251;SDS011;10284;58.364;15.550;2023-08-31T14:40:14;1.83;;;0.95;;
20251;SDS011;10284;58.364;15.550;2023-08-31T14:42:39;1.40;;;1.00;;
20251;SDS011;10284;58.364;15.550;2023-08-31T14:45:05;1.13;;;0.88;;